Time;durP1;ratioP1;P1;durP2;ratioP2;P2;SDS_P1;SDS_P2;PMS_P1;PMS_P2;Temp;Humidity;BMP_temperature;BMP_pressure;BME280_temperature;BME280_humidity;BME280_pressure;Samples;Min_cycle;Max_cycle;Signal;HPM_P1;HPM_P2
2024/01/24 00:00:07;;;;;;;3.60;1.90;;;;;;;;;;5052562;28;20213;-88
2024/01/24 00:02:34;;;;;;;4.17;1.70;;;;;;;;;;5047782;28;20240;-89
2024/01/24 00:05:02;;;;;;;9.43;2.70;;;;;;;;;;5053546;28;20259;-88
2024/01/24 00:07:31;;;;;;;1.57;1.47;;;;;;;;;;5052608;28;20668;-89
2024/01/24 00:09:58;;;;;;;6.20;1.90;;;;;;;;;;5053389;28;20248;-89
2024/01/24 00:12:25;;;;;;;4.90;1.83;;;;;;;;;;5052196;28;20225;-90
2024/01/24 00:14:52;;;;;;;1.60;1.50;;;;;;;;;;5053658;28;20217;-89
2024/01/24 00:17:19;;;;;;;4.77;2.10;;;;;;;;;;5052148;28;20238;-88
2024/01/24 00:19:46;;;;;;;5.80;2.53;;;;;;;;;;5052847;28;20203;-89
2024/01/24 00:22:14;;;;;;;5.73;2.13;;;;;;;;;;5051322;28;20233;-89
2024/01/24 00:24:41;;;;;;;4.03;2.03;;;;;;;;;;5052819;28;20283;-89
2024/01/24 00:27:08;;;;;;;3.67;2.00;;;;;;;;;;5055180;28;20230;-89
2024/01/24 00:29:35;;;;;;;3.83;1.90;;;;;;;;;;5056307;28;20201;-89
2024/01/24 00:32:03;;;;;;;4.10;1.80;;;;;;;;;;5055613;28;20229;-89
2024/01/24 00:34:30;;;;;;;2.77;2.03;;;;;;;;;;5056610;28;20260;-89
2024/01/24 00:36:57;;;;;;;1.70;1.60;;;;;;;;;;5055884;28;20313;-90
2024/01/24 00:39:26;;;;;;;3.40;2.07;;;;;;;;;;5055962;28;20209;-88
2024/01/24 00:41:55;;;;;;;3.03;1.30;;;;;;;;;;5055537;28;20229;-89
2024/01/24 00:44:23;;;;;;;4.30;1.70;;;;;;;;;;5056107;28;20201;-89
2024/01/24 00:46:50;;;;;;;2.20;1.70;;;;;;;;;;5055167;28;20230;-88
2024/01/24 00:49:17;;;;;;;6.53;2.07;;;;;;;;;;5055278;28;20209;-89
2024/01/24 00:51:44;;;;;;;2.10;1.80;;;;;;;;;;5055213;28;20241;-89
2024/01/24 00:54:11;;;;;;;3.67;1.83;;;;;;;;;;5055457;28;20677;-87
2024/01/24 00:56:46;;;;;;;6.10;2.10;;;;;;;;;;5055756;28;20246;-89
2024/01/24 00:59:13;;;;;;;1.43;1.33;;;;;;;;;;5056092;28;20190;-89
2024/01/24 01:01:40;;;;;;;1.27;1.20;;;;;;;;;;5054916;28;20242;-89
2024/01/24 01:04:07;;;;;;;3.80;1.87;;;;;;;;;;5056150;28;20587;-90
2024/01/24 01:06:34;;;;;;;2.13;1.83;;;;;;;;;;5050288;28;20237;-89
2024/01/24 01:09:02;;;;;;;4.50;1.90;;;;;;;;;;5055876;28;20210;-89
2024/01/24 01:11:33;;;;;;;1.70;1.57;;;;;;;;;;5055362;28;20242;-89
2024/01/24 01:14:01;;;;;;;1.13;1.10;;;;;;;;;;5056035;28;20233;-89
2024/01/24 01:16:28;;;;;;;5.37;1.87;;;;;;;;;;5055472;28;20241;-89
2024/01/24 01:18:55;;;;;;;1.60;1.50;;;;;;;;;;5055917;28;20271;-89
2024/01/24 01:21:22;;;;;;;3.83;2.33;;;;;;;;;;5055956;28;20246;-89
2024/01/24 01:23:49;;;;;;;3.63;1.90;;;;;;;;;;5055828;28;20221;-89
2024/01/24 01:26:16;;;;;;;7.47;2.00;;;;;;;;;;5061969;28;20240;-89
2024/01/24 01:28:43;;;;;;;2.70;2.10;;;;;;;;;;5055539;28;20665;-89
2024/01/24 01:31:11;;;;;;;3.53;3.03;;;;;;;;;;5054961;28;20234;-89
2024/01/24 01:33:38;;;;;;;1.57;1.47;;;;;;;;;;5055433;28;20205;-89
2024/01/24 01:36:06;;;;;;;4.57;2.13;;;;;;;;;;5054764;28;20234;-89
2024/01/24 01:38:33;;;;;;;6.93;2.43;;;;;;;;;;5055439;28;20245;-88
2024/01/24 01:41:00;;;;;;;4.20;1.80;;;;;;;;;;5055264;28;20234;-89
2024/01/24 01:43:27;;;;;;;4.07;1.30;;;;;;;;;;5055236;28;20229;-89
2024/01/24 01:45:57;;;;;;;3.27;1.70;;;;;;;;;;5054711;28;20240;-87
2024/01/24 01:48:26;;;;;;;1.43;1.23;;;;;;;;;;5054970;28;20224;-89
2024/01/24 01:50:53;;;;;;;7.33;2.27;;;;;;;;;;5054293;28;20735;-89
2024/01/24 01:53:21;;;;;;;3.90;1.80;;;;;;;;;;5055299;28;20209;-89
2024/01/24 01:55:48;;;;;;;4.07;1.90;;;;;;;;;;5054640;28;20821;-89
2024/01/24 01:58:17;;;;;;;1.70;1.57;;;;;;;;;;5055153;28;20205;-89
2024/01/24 02:00:44;;;;;;;3.13;1.93;;;;;;;;;;5054246;28;20241;-89
2024/01/24 02:03:12;;;;;;;8.07;1.70;;;;;;;;;;5052433;28;20226;-90
2024/01/24 02:05:41;;;;;;;6.63;2.30;;;;;;;;;;5041757;28;20321;-89
2024/01/24 02:08:08;;;;;;;8.27;2.03;;;;;;;;;;5051169;28;20209;-89
2024/01/24 02:10:35;;;;;;;1.50;1.40;;;;;;;;;;5069369;28;20236;-89
2024/01/24 02:13:02;;;;;;;3.40;1.70;;;;;;;;;;5074630;28;20209;-89
2024/01/24 02:15:31;;;;;;;1.90;1.43;;;;;;;;;;5069394;28;20240;-89
2024/01/24 02:18:00;;;;;;;4.63;1.70;;;;;;;;;;5074471;28;20205;-90
2024/01/24 02:20:28;;;;;;;3.30;1.40;;;;;;;;;;5073859;28;20233;-89
2024/01/24 02:22:56;;;;;;;1.87;1.60;;;;;;;;;;5055690;28;20218;-88
2024/01/24 02:25:25;;;;;;;5.23;1.57;;;;;;;;;;5053916;28;20238;-89
2024/01/24 02:27:52;;;;;;;2.53;1.40;;;;;;;;;;5034442;28;20245;-89
2024/01/24 02:30:19;;;;;;;1.27;1.27;;;;;;;;;;5033712;28;20626;-88
2024/01/24 02:32:46;;;;;;;2.10;1.30;;;;;;;;;;5034428;28;20565;-89
2024/01/24 02:35:13;;;;;;;3.17;1.43;;;;;;;;;;5033825;28;20260;-87
2024/01/24 02:37:40;;;;;;;2.67;1.20;;;;;;;;;;5051598;28;20198;-90
2024/01/24 02:40:08;;;;;;;4.03;1.60;;;;;;;;;;5053866;28;20248;-89
2024/01/24 02:42:36;;;;;;;1.53;1.43;;;;;;;;;;5053864;28;20230;-89
2024/01/24 02:45:03;;;;;;;1.70;1.27;;;;;;;;;;5053510;28;20380;-88
2024/01/24 02:47:30;;;;;;;1.50;1.40;;;;;;;;;;5054058;28;20244;-89
2024/01/24 02:50:01;;;;;;;1.57;1.53;;;;;;;;;;5053347;28;20233;-89
2024/01/24 02:52:28;;;;;;;3.17;1.30;;;;;;;;;;5053547;28;20226;-89
2024/01/24 02:54:55;;;;;;;1.07;1.00;;;;;;;;;;5054373;28;20210;-89
2024/01/24 02:57:22;;;;;;;1.63;1.53;;;;;;;;;;5053061;28;20230;-89
2024/01/24 02:59:51;;;;;;;3.00;1.13;;;;;;;;;;5053831;28;20640;-89
2024/01/24 03:02:18;;;;;;;2.90;1.67;;;;;;;;;;5053435;28;20234;-90
2024/01/24 03:04:45;;;;;;;1.30;1.30;;;;;;;;;;5053820;28;20197;-90
2024/01/24 03:07:12;;;;;;;3.97;1.27;;;;;;;;;;5053078;28;20249;-89
2024/01/24 03:09:39;;;;;;;0.93;0.93;;;;;;;;;;5053502;28;20206;-89
2024/01/24 03:12:06;;;;;;;2.70;1.50;;;;;;;;;;5052955;28;20307;-89
2024/01/24 03:14:33;;;;;;;1.13;1.13;;;;;;;;;;5053942;28;20240;-87
2024/01/24 03:17:02;;;;;;;2.73;1.43;;;;;;;;;;5051286;28;20238;-87
2024/01/24 03:19:29;;;;;;;2.60;1.50;;;;;;;;;;5050922;28;20250;-89
2024/01/24 03:21:56;;;;;;;3.97;1.47;;;;;;;;;;5053457;28;20234;-90
2024/01/24 03:24:23;;;;;;;1.33;1.30;;;;;;;;;;5053428;28;20317;-90
2024/01/24 03:26:50;;;;;;;1.13;1.00;;;;;;;;;;5052755;28;20236;-90
2024/01/24 03:29:17;;;;;;;1.20;1.10;;;;;;;;;;5053187;28;20206;-89
2024/01/24 03:31:44;;;;;;;1.27;1.23;;;;;;;;;;5052980;28;20238;-89
2024/01/24 03:34:13;;;;;;;1.10;1.10;;;;;;;;;;5053461;28;20212;-89
2024/01/24 03:36:40;;;;;;;7.30;1.93;;;;;;;;;;5046556;28;20234;-90
2024/01/24 03:39:09;;;;;;;2.57;1.30;;;;;;;;;;5033703;28;20264;-89
2024/01/24 03:41:37;;;;;;;1.53;1.20;;;;;;;;;;5033206;28;20325;-87
2024/01/24 03:44:04;;;;;;;1.60;1.30;;;;;;;;;;5035914;28;20257;-90
2024/01/24 03:46:31;;;;;;;1.53;1.40;;;;;;;;;;5052578;28;20793;-91
2024/01/24 03:48:58;;;;;;;2.47;1.40;;;;;;;;;;5053266;28;20206;-90
2024/01/24 03:51:28;;;;;;;2.33;1.50;;;;;;;;;;5052948;28;20706;-90
2024/01/24 03:53:55;;;;;;;2.33;1.47;;;;;;;;;;5053350;28;20285;-89
2024/01/24 03:56:22;;;;;;;2.50;1.60;;;;;;;;;;5052862;28;20300;-89
2024/01/24 03:58:49;;;;;;;1.63;1.50;;;;;;;;;;5053637;28;20613;-89
2024/01/24 04:01:16;;;;;;;1.93;1.03;;;;;;;;;;5054573;28;20237;-90
2024/01/24 04:03:43;;;;;;;2.53;1.70;;;;;;;;;;5057149;28;20275;-88
2024/01/24 04:06:10;;;;;;;1.10;1.10;;;;;;;;;;5056438;28;20708;-89
2024/01/24 04:08:39;;;;;;;1.30;1.23;;;;;;;;;;5040721;28;20201;-90
2024/01/24 04:11:06;;;;;;;1.30;1.30;;;;;;;;;;5056150;28;20241;-89
2024/01/24 04:13:33;;;;;;;1.30;1.20;;;;;;;;;;5056805;28;20546;-89
2024/01/24 04:16:00;;;;;;;1.20;1.20;;;;;;;;;;5056253;28;20247;-89
2024/01/24 04:18:31;;;;;;;1.57;1.07;;;;;;;;;;5056453;28;20198;-88
2024/01/24 04:20:58;;;;;;;1.20;1.20;;;;;;;;;;5056172;28;20265;-89
2024/01/24 04:23:25;;;;;;;1.13;1.13;;;;;;;;;;5057004;28;20222;-90
2024/01/24 04:25:53;;;;;;;1.87;1.20;;;;;;;;;;5052151;28;20241;-89
2024/01/24 04:28:20;;;;;;;1.00;1.00;;;;;;;;;;5057125;28;20202;-89
2024/01/24 04:30:47;;;;;;;1.00;1.00;;;;;;;;;;5056445;28;20249;-88
2024/01/24 04:33:14;;;;;;;3.37;1.10;;;;;;;;;;5062031;28;20186;-89
2024/01/24 04:35:41;;;;;;;1.13;1.00;;;;;;;;;;5056603;28;20291;-89
2024/01/24 04:38:08;;;;;;;1.10;1.10;;;;;;;;;;5056639;28;20210;-90
2024/01/24 04:40:35;;;;;;;1.10;1.10;;;;;;;;;;5055957;28;20241;-89
2024/01/24 04:43:04;;;;;;;1.00;1.00;;;;;;;;;;5056163;28;20234;-89
2024/01/24 04:45:31;;;;;;;1.07;1.07;;;;;;;;;;5055973;28;20241;-88
2024/01/24 04:47:58;;;;;;;1.13;1.10;;;;;;;;;;5055737;28;20206;-90
2024/01/24 04:50:25;;;;;;;1.00;1.00;;;;;;;;;;5055009;28;20233;-89
2024/01/24 04:52:52;;;;;;;1.17;1.07;;;;;;;;;;5055970;28;20214;-90
2024/01/24 04:55:19;;;;;;;1.70;1.10;;;;;;;;;;5055985;28;20217;-89
2024/01/24 04:57:46;;;;;;;0.80;0.80;;;;;;;;;;5055912;28;20268;-92
2024/01/24 05:00:15;;;;;;;1.83;1.10;;;;;;;;;;5045302;28;20653;-90
2024/01/24 05:02:42;;;;;;;0.93;0.93;;;;;;;;;;5035352;28;20203;-87
2024/01/24 05:05:10;;;;;;;1.17;1.07;;;;;;;;;;5035283;28;20233;-88
2024/01/24 05:07:38;;;;;;;1.00;1.00;;;;;;;;;;5046119;28;20206;-90
2024/01/24 05:10:06;;;;;;;1.90;1.10;;;;;;;;;;5047296;28;20650;-89
2024/01/24 05:12:51;;;;;;;1.23;1.13;;;;;;;;;;5051305;28;20225;-91
2024/01/24 05:15:20;;;;;;;0.90;0.90;;;;;;;;;;5035693;28;20191;-89
2024/01/24 05:17:47;;;;;;;0.83;0.83;;;;;;;;;;5041564;28;20292;-89
2024/01/24 05:20:15;;;;;;;1.07;1.07;;;;;;;;;;5052505;28;20221;-90
2024/01/24 05:22:42;;;;;;;0.90;0.90;;;;;;;;;;5044674;28;20213;-90
2024/01/24 05:25:20;;;;;;;1.07;1.07;;;;;;;;;;5046171;28;20218;-90
2024/01/24 05:27:47;;;;;;;1.37;1.20;;;;;;;;;;5043981;28;20191;-89
2024/01/24 05:30:14;;;;;;;1.20;0.93;;;;;;;;;;5053009;28;20206;-89
2024/01/24 05:32:43;;;;;;;0.90;0.90;;;;;;;;;;5035051;28;20685;-89
2024/01/24 05:35:10;;;;;;;1.10;1.03;;;;;;;;;;5034993;28;20202;-91
2024/01/24 05:37:37;;;;;;;0.93;0.90;;;;;;;;;;5044993;28;20198;-89
2024/01/24 05:40:05;;;;;;;1.13;1.13;;;;;;;;;;5039750;28;20553;-89
2024/01/24 05:42:32;;;;;;;2.97;1.67;;;;;;;;;;5053888;28;20222;-90
2024/01/24 05:44:59;;;;;;;0.80;0.80;;;;;;;;;;5039450;28;20211;-89
2024/01/24 05:47:26;;;;;;;0.90;0.90;;;;;;;;;;5035341;28;20261;-90
2024/01/24 05:49:55;;;;;;;4.63;1.20;;;;;;;;;;5045741;28;20202;-91
2024/01/24 05:52:22;;;;;;;1.50;0.97;;;;;;;;;;5035700;28;20238;-89
2024/01/24 05:54:49;;;;;;;1.00;1.00;;;;;;;;;;5034678;28;20207;-92
2024/01/24 05:57:16;;;;;;;0.90;0.90;;;;;;;;;;5038427;28;20276;-90
2024/01/24 05:59:43;;;;;;;1.00;1.00;;;;;;;;;;5054349;28;20202;-88
2024/01/24 06:02:18;;;;;;;1.13;1.07;;;;;;;;;;5053776;28;20499;-89
2024/01/24 06:04:45;;;;;;;1.43;1.23;;;;;;;;;;5046924;28;20271;-89
2024/01/24 06:07:14;;;;;;;0.80;0.80;;;;;;;;;;5054699;28;20233;-88
2024/01/24 06:09:41;;;;;;;0.90;0.90;;;;;;;;;;5046610;28;20680;-89
2024/01/24 06:12:08;;;;;;;0.80;0.80;;;;;;;;;;5033801;28;20243;-88
2024/01/24 06:14:35;;;;;;;0.80;0.80;;;;;;;;;;5035660;28;20210;-88
2024/01/24 06:17:02;;;;;;;0.90;0.90;;;;;;;;;;5053370;28;20229;-86
2024/01/24 06:19:29;;;;;;;1.00;1.00;;;;;;;;;;5047226;28;20214;-89
2024/01/24 06:21:56;;;;;;;0.80;0.80;;;;;;;;;;5033410;28;20653;-88
2024/01/24 06:24:25;;;;;;;0.70;0.70;;;;;;;;;;5044169;28;20229;-88
2024/01/24 06:26:52;;;;;;;0.97;0.93;;;;;;;;;;5038421;28;20755;-88
2024/01/24 06:29:19;;;;;;;0.70;0.70;;;;;;;;;;5033550;28;20221;-90
2024/01/24 06:31:47;;;;;;;0.83;0.83;;;;;;;;;;5039163;28;20253;-88
2024/01/24 06:34:14;;;;;;;1.10;1.00;;;;;;;;;;5048279;28;20202;-87
2024/01/24 06:36:41;;;;;;;0.83;0.83;;;;;;;;;;5041721;28;20237;-89
2024/01/24 06:39:09;;;;;;;0.73;0.73;;;;;;;;;;5041365;28;20687;-88
2024/01/24 06:41:38;;;;;;;0.93;0.93;;;;;;;;;;5039545;28;20234;-87
2024/01/24 06:44:05;;;;;;;1.20;1.00;;;;;;;;;;5038537;28;20222;-88
2024/01/24 06:46:33;;;;;;;0.90;0.90;;;;;;;;;;5052714;28;20317;-88
2024/01/24 06:49:00;;;;;;;0.90;0.90;;;;;;;;;;5053601;28;20259;-90
2024/01/24 06:51:27;;;;;;;1.00;1.00;;;;;;;;;;5053052;28;20249;-88
2024/01/24 06:53:54;;;;;;;0.67;0.67;;;;;;;;;;5053838;28;20553;-89
2024/01/24 06:56:22;;;;;;;0.80;0.80;;;;;;;;;;5053438;28;20264;-88
2024/01/24 06:58:50;;;;;;;1.13;1.13;;;;;;;;;;5053335;28;20296;-88
2024/01/24 07:01:21;;;;;;;0.90;0.90;;;;;;;;;;5052877;28;20241;-89
2024/01/24 07:03:48;;;;;;;0.87;0.87;;;;;;;;;;5052294;28;20190;-88
2024/01/24 07:06:15;;;;;;;1.20;1.10;;;;;;;;;;5052171;28;20312;-87
2024/01/24 07:08:42;;;;;;;0.90;0.90;;;;;;;;;;5053849;28;20661;-88
2024/01/24 07:11:10;;;;;;;0.70;0.70;;;;;;;;;;5052540;28;20708;-88
2024/01/24 07:13:38;;;;;;;0.90;0.90;;;;;;;;;;5053313;28;20240;-88
2024/01/24 07:16:07;;;;;;;1.00;1.00;;;;;;;;;;5052705;28;20240;-87
2024/01/24 07:18:34;;;;;;;1.27;1.20;;;;;;;;;;5053293;28;20615;-89
2024/01/24 07:21:02;;;;;;;0.80;0.80;;;;;;;;;;5052371;28;20241;-88
2024/01/24 07:23:29;;;;;;;0.90;0.90;;;;;;;;;;5053157;28;20218;-88
2024/01/24 07:25:56;;;;;;;0.90;0.90;;;;;;;;;;5052617;28;20245;-89
2024/01/24 07:28:24;;;;;;;0.80;0.80;;;;;;;;;;5052815;28;20194;-87
2024/01/24 07:30:51;;;;;;;0.90;0.90;;;;;;;;;;5052503;28;20284;-88
2024/01/24 07:33:19;;;;;;;0.90;0.90;;;;;;;;;;5052937;28;20202;-87
2024/01/24 07:35:46;;;;;;;1.70;1.03;;;;;;;;;;5055289;28;20234;-87
2024/01/24 07:38:13;;;;;;;1.90;0.80;;;;;;;;;;5056494;28;20202;-87
2024/01/24 07:40:41;;;;;;;1.00;1.00;;;;;;;;;;5056402;28;20237;-88
2024/01/24 07:43:08;;;;;;;1.00;1.00;;;;;;;;;;5056826;28;20252;-88
2024/01/24 07:45:36;;;;;;;1.00;1.00;;;;;;;;;;5055985;28;20720;-88
2024/01/24 07:48:04;;;;;;;0.97;0.80;;;;;;;;;;5056844;28;20205;-88
2024/01/24 07:50:33;;;;;;;0.80;0.80;;;;;;;;;;5056487;28;20656;-89
2024/01/24 07:53:00;;;;;;;1.13;1.13;;;;;;;;;;5057069;28;20202;-89
2024/01/24 07:55:27;;;;;;;1.17;1.10;;;;;;;;;;5056508;28;20642;-90
2024/01/24 07:57:54;;;;;;;0.97;0.97;;;;;;;;;;5056866;28;20707;-90
2024/01/24 08:00:21;;;;;;;1.10;1.10;;;;;;;;;;5056126;28;20256;-88
2024/01/24 08:02:48;;;;;;;0.80;0.80;;;;;;;;;;5053040;28;20214;-89
2024/01/24 08:05:15;;;;;;;1.87;1.40;;;;;;;;;;5052589;28;20233;-89
2024/01/24 08:07:43;;;;;;;1.20;1.10;;;;;;;;;;5056637;28;20255;-86
2024/01/24 08:10:11;;;;;;;0.90;0.90;;;;;;;;;;5054986;28;20218;-86
2024/01/24 08:12:39;;;;;;;1.73;1.30;;;;;;;;;;5055794;28;20226;-86
2024/01/24 08:15:07;;;;;;;1.37;1.13;;;;;;;;;;5053016;28;20205;-86
2024/01/24 08:17:34;;;;;;;0.87;0.87;;;;;;;;;;5055206;28;20228;-85
2024/01/24 08:20:03;;;;;;;1.10;1.10;;;;;;;;;;5054851;28;20210;-86
2024/01/24 08:22:31;;;;;;;0.90;0.90;;;;;;;;;;5054954;28;20248;-87
2024/01/24 08:24:59;;;;;;;1.20;1.20;;;;;;;;;;5054317;28;20233;-86
2024/01/24 08:27:26;;;;;;;1.10;1.10;;;;;;;;;;5055044;28;20464;-86
2024/01/24 08:29:53;;;;;;;1.00;1.00;;;;;;;;;;5055225;28;20218;-86
2024/01/24 08:32:20;;;;;;;1.33;1.23;;;;;;;;;;5054751;28;20245;-87
2024/01/24 08:34:47;;;;;;;1.70;1.23;;;;;;;;;;5055046;28;20206;-86
2024/01/24 08:37:14;;;;;;;4.90;1.50;;;;;;;;;;5054623;28;20296;-86
2024/01/24 08:39:41;;;;;;;0.80;0.80;;;;;;;;;;5055121;28;20217;-86
2024/01/24 08:42:10;;;;;;;2.20;1.33;;;;;;;;;;5054658;28;20241;-86
2024/01/24 08:44:39;;;;;;;1.20;1.10;;;;;;;;;;5054080;28;20582;-86
2024/01/24 08:47:06;;;;;;;1.00;1.00;;;;;;;;;;5054425;28;20233;-85
2024/01/24 08:49:33;;;;;;;1.63;1.27;;;;;;;;;;5052376;28;20817;-85
2024/01/24 08:52:01;;;;;;;1.00;1.00;;;;;;;;;;5060903;28;20230;-84
2024/01/24 08:54:28;;;;;;;1.20;1.20;;;;;;;;;;5053811;28;20205;-88
2024/01/24 08:56:55;;;;;;;1.30;1.20;;;;;;;;;;5054092;28;20229;-88
2024/01/24 08:59:23;;;;;;;1.50;1.40;;;;;;;;;;5054256;28;20673;-87
2024/01/24 09:01:55;;;;;;;1.00;1.00;;;;;;;;;;5053335;28;20238;-88
2024/01/24 09:04:22;;;;;;;0.80;0.80;;;;;;;;;;5053474;28;20198;-88
2024/01/24 09:06:54;;;;;;;0.70;0.70;;;;;;;;;;5048302;28;20778;-87
2024/01/24 09:09:21;;;;;;;0.97;0.90;;;;;;;;;;5034576;28;20213;-86
2024/01/24 09:11:48;;;;;;;1.23;1.13;;;;;;;;;;5033604;28;20242;-87
2024/01/24 09:14:15;;;;;;;0.87;0.87;;;;;;;;;;5034484;28;20214;-85
2024/01/24 09:16:44;;;;;;;1.30;1.20;;;;;;;;;;5033455;28;20665;-87
2024/01/24 09:19:12;;;;;;;1.63;1.03;;;;;;;;;;5033614;28;20314;-88
2024/01/24 09:21:40;;;;;;;0.90;0.90;;;;;;;;;;5033811;28;20265;-88
2024/01/24 09:24:07;;;;;;;0.80;0.80;;;;;;;;;;5034535;28;20206;-86
2024/01/24 09:26:34;;;;;;;1.10;1.10;;;;;;;;;;5033584;28;20242;-86
2024/01/24 09:29:02;;;;;;;0.90;0.90;;;;;;;;;;5034636;28;20202;-88
2024/01/24 09:31:32;;;;;;;1.37;1.10;;;;;;;;;;5034149;28;20235;-87
2024/01/24 09:34:00;;;;;;;0.83;0.83;;;;;;;;;;5034871;28;20274;-88
2024/01/24 09:36:27;;;;;;;1.90;1.20;;;;;;;;;;5033928;28;20238;-89
2024/01/24 09:38:54;;;;;;;1.23;1.10;;;;;;;;;;5034276;28;20211;-87
2024/01/24 09:41:21;;;;;;;3.40;1.13;;;;;;;;;;5033751;28;20246;-89
2024/01/24 09:43:49;;;;;;;1.33;1.10;;;;;;;;;;5032528;28;20203;-90
2024/01/24 09:46:18;;;;;;;2.67;1.30;;;;;;;;;;5032896;28;20257;-89
2024/01/24 09:48:46;;;;;;;3.93;1.37;;;;;;;;;;5034362;28;20334;-89
2024/01/24 09:51:14;;;;;;;1.97;1.30;;;;;;;;;;5033614;28;20250;-89
2024/01/24 09:53:45;;;;;;;1.33;1.10;;;;;;;;;;5042695;28;20230;-91
2024/01/24 09:56:13;;;;;;;1.37;1.27;;;;;;;;;;5045260;28;20254;-86
2024/01/24 09:58:40;;;;;;;3.60;1.50;;;;;;;;;;5043946;28;20205;-87
2024/01/24 10:01:12;;;;;;;1.50;1.10;;;;;;;;;;5039074;28;20238;-87
2024/01/24 10:03:39;;;;;;;4.53;1.60;;;;;;;;;;5050608;28;20197;-90
2024/01/24 10:06:09;;;;;;;4.43;1.53;;;;;;;;;;5039503;28;20241;-85
2024/01/24 10:08:46;;;;;;;3.20;1.53;;;;;;;;;;5042310;28;20201;-88
2024/01/24 10:11:13;;;;;;;4.63;1.87;;;;;;;;;;5048985;28;20229;-86
2024/01/24 10:13:40;;;;;;;1.83;1.60;;;;;;;;;;5034215;28;20214;-85
2024/01/24 10:16:08;;;;;;;2.63;1.40;;;;;;;;;;5038675;28;20819;-85
2024/01/24 10:18:35;;;;;;;4.63;1.40;;;;;;;;;;5033054;28;20664;-85
2024/01/24 10:21:03;;;;;;;5.83;1.60;;;;;;;;;;5042352;28;20681;-87
2024/01/24 10:23:30;;;;;;;3.73;1.73;;;;;;;;;;5033068;28;20275;-86
2024/01/24 10:25:59;;;;;;;4.70;1.60;;;;;;;;;;5038646;28;20704;-88
2024/01/24 10:28:28;;;;;;;5.37;1.80;;;;;;;;;;5037869;28;20210;-88
2024/01/24 10:30:55;;;;;;;3.10;1.57;;;;;;;;;;5036372;28;20229;-88
2024/01/24 10:33:22;;;;;;;4.37;1.47;;;;;;;;;;5046586;28;20205;-88
2024/01/24 10:35:49;;;;;;;1.00;0.90;;;;;;;;;;5046133;28;20292;-88
2024/01/24 10:38:19;;;;;;;3.63;1.50;;;;;;;;;;5053410;28;20197;-88
2024/01/24 10:40:47;;;;;;;3.63;1.60;;;;;;;;;;5052377;28;20241;-88
2024/01/24 10:43:15;;;;;;;3.47;1.57;;;;;;;;;;5053147;28;20556;-85
2024/01/24 10:45:44;;;;;;;2.63;1.53;;;;;;;;;;5051963;28;20241;-87
2024/01/24 10:48:12;;;;;;;4.23;1.70;;;;;;;;;;5052481;28;20206;-86
2024/01/24 10:50:40;;;;;;;2.27;1.70;;;;;;;;;;5048918;28;20238;-85
2024/01/24 10:53:10;;;;;;;5.83;1.77;;;;;;;;;;5032631;28;20202;-87
2024/01/24 10:55:38;;;;;;;4.00;1.43;;;;;;;;;;5032216;28;20709;-87
2024/01/24 10:58:05;;;;;;;4.17;1.70;;;;;;;;;;5047072;28;20301;-86
2024/01/24 11:00:35;;;;;;;6.93;1.83;;;;;;;;;;5041744;28;20245;-87
2024/01/24 11:03:02;;;;;;;5.93;2.10;;;;;;;;;;5032540;28;20218;-86
2024/01/24 11:05:30;;;;;;;6.53;2.17;;;;;;;;;;5044492;28;20254;-86
2024/01/24 11:08:01;;;;;;;6.57;1.77;;;;;;;;;;5044416;28;20214;-86
2024/01/24 11:10:31;;;;;;;5.33;1.90;;;;;;;;;;5033178;28;20226;-87
2024/01/24 11:12:59;;;;;;;6.63;2.00;;;;;;;;;;5035975;28;20213;-87
2024/01/24 11:15:28;;;;;;;7.50;2.27;;;;;;;;;;5035388;28;20237;-86
2024/01/24 11:18:16;;;;;;;3.87;1.87;;;;;;;;;;5052742;28;20206;-89
2024/01/24 11:20:49;;;;;;;3.30;1.80;;;;;;;;;;5068370;28;20242;-90
2024/01/24 11:23:35;;;;;;;3.90;1.67;;;;;;;;;;5052714;28;20240;-87
2024/01/24 11:26:03;;;;;;;8.17;1.93;;;;;;;;;;5051499;28;20238;-85
2024/01/24 11:28:30;;;;;;;6.50;1.83;;;;;;;;;;5052610;28;20185;-87
2024/01/24 11:30:57;;;;;;;6.63;2.03;;;;;;;;;;5051782;28;20248;-86
2024/01/24 11:33:24;;;;;;;7.87;2.50;;;;;;;;;;5052452;28;20255;-86
2024/01/24 11:35:56;;;;;;;5.27;2.10;;;;;;;;;;5051807;28;20241;-86
2024/01/24 11:38:36;;;;;;;10.57;2.13;;;;;;;;;;5051861;28;20194;-86
2024/01/24 11:41:05;;;;;;;3.70;1.77;;;;;;;;;;5051501;28;20264;-87
2024/01/24 11:43:31;;;;;;;3.33;2.07;;;;;;;;;;5051982;28;20194;-86
2024/01/24 11:46:00;;;;;;;4.50;2.27;;;;;;;;;;5051697;28;20333;-87
2024/01/24 11:48:27;;;;;;;5.60;1.87;;;;;;;;;;5051914;28;20206;-87
2024/01/24 11:50:57;;;;;;;5.80;2.20;;;;;;;;;;5052024;28;20244;-87
2024/01/24 11:53:24;;;;;;;5.70;1.70;;;;;;;;;;5052412;28;20217;-86
2024/01/24 11:55:52;;;;;;;9.50;2.40;;;;;;;;;;5051497;28;20230;-87
2024/01/24 11:58:19;;;;;;;6.20;2.33;;;;;;;;;;5051802;28;20210;-86
2024/01/24 12:00:46;;;;;;;8.27;2.87;;;;;;;;;;5051396;28;20241;-86
2024/01/24 12:03:15;;;;;;;4.57;2.07;;;;;;;;;;5051759;28;20289;-86
2024/01/24 12:05:42;;;;;;;12.37;2.40;;;;;;;;;;5051278;28;20317;-88
2024/01/24 12:08:12;;;;;;;7.67;2.50;;;;;;;;;;5051760;28;20221;-87
2024/01/24 12:10:40;;;;;;;11.30;2.73;;;;;;;;;;5051193;28;20323;-88
2024/01/24 12:13:07;;;;;;;5.10;2.40;;;;;;;;;;5051903;28;20209;-87
2024/01/24 12:15:34;;;;;;;7.13;2.10;;;;;;;;;;5050333;28;20230;-86
2024/01/24 12:18:05;;;;;;;7.43;2.40;;;;;;;;;;5049810;28;20210;-87
2024/01/24 12:20:32;;;;;;;9.47;2.37;;;;;;;;;;5048519;28;20284;-87
2024/01/24 12:23:00;;;;;;;6.97;2.80;;;;;;;;;;5052126;28;20672;-87
2024/01/24 12:25:28;;;;;;;8.17;2.50;;;;;;;;;;5053230;28;20241;-86
2024/01/24 12:27:56;;;;;;;5.27;2.03;;;;;;;;;;5054835;28;20213;-86
2024/01/24 12:30:23;;;;;;;7.77;2.17;;;;;;;;;;5054136;28;20242;-86
2024/01/24 12:32:55;;;;;;;8.07;2.40;;;;;;;;;;5055772;28;20202;-87
2024/01/24 12:35:22;;;;;;;5.83;2.20;;;;;;;;;;5055712;28;20257;-87
2024/01/24 12:37:49;;;;;;;10.60;2.60;;;;;;;;;;5055650;28;20213;-87
2024/01/24 12:40:18;;;;;;;8.57;2.30;;;;;;;;;;5055331;28;20206;-87
2024/01/24 12:42:46;;;;;;;8.70;2.70;;;;;;;;;;5055596;28;20417;-88
2024/01/24 12:45:13;;;;;;;8.33;2.77;;;;;;;;;;5054881;28;20198;-87
2024/01/24 12:47:41;;;;;;;4.63;2.10;;;;;;;;;;5045309;28;20233;-88
2024/01/24 12:50:10;;;;;;;8.00;2.60;;;;;;;;;;5054773;28;20617;-87
2024/01/24 12:52:37;;;;;;;6.20;2.10;;;;;;;;;;5055205;28;20256;-88
2024/01/24 12:55:07;;;;;;;7.03;2.13;;;;;;;;;;5055075;28;20206;-88
2024/01/24 12:57:34;;;;;;;6.67;2.27;;;;;;;;;;5054893;28;20214;-88
2024/01/24 13:00:04;;;;;;;9.23;2.37;;;;;;;;;;5054339;28;20202;-87
2024/01/24 13:02:32;;;;;;;7.67;2.57;;;;;;;;;;5058328;28;20222;-88
2024/01/24 13:04:59;;;;;;;6.47;2.30;;;;;;;;;;5054586;28;20210;-86
2024/01/24 13:07:26;;;;;;;7.33;2.23;;;;;;;;;;5050706;28;20727;-87
2024/01/24 13:09:54;;;;;;;13.23;3.00;;;;;;;;;;5046083;28;20202;-87
2024/01/24 13:12:21;;;;;;;5.77;2.10;;;;;;;;;;5053561;28;20249;-87
2024/01/24 13:14:49;;;;;;;5.17;3.10;;;;;;;;;;5054492;28;20214;-87
2024/01/24 13:17:18;;;;;;;11.30;3.10;;;;;;;;;;5053162;28;20306;-86
2024/01/24 13:19:46;;;;;;;10.03;2.90;;;;;;;;;;5052657;28;20232;-86
2024/01/24 13:22:13;;;;;;;8.13;2.50;;;;;;;;;;5053980;28;20275;-88
2024/01/24 13:24:40;;;;;;;10.70;3.20;;;;;;;;;;5053903;28;20570;-88
2024/01/24 13:27:15;;;;;;;6.87;2.30;;;;;;;;;;5054955;28;20238;-87
2024/01/24 13:29:42;;;;;;;11.10;2.70;;;;;;;;;;5051247;28;20202;-86
2024/01/24 13:32:11;;;;;;;8.40;3.33;;;;;;;;;;5051235;28;20235;-85
2024/01/24 13:34:40;;;;;;;7.67;2.53;;;;;;;;;;5044108;28;20569;-87
2024/01/24 13:37:07;;;;;;;8.10;2.70;;;;;;;;;;5052229;28;20224;-87
2024/01/24 13:39:34;;;;;;;9.13;2.70;;;;;;;;;;5051766;28;20262;-85
2024/01/24 13:42:01;;;;;;;7.90;2.50;;;;;;;;;;5049112;28;20283;-87
2024/01/24 13:44:31;;;;;;;3.07;1.90;;;;;;;;;;5054302;28;20203;-84
2024/01/24 13:46:58;;;;;;;6.37;2.60;;;;;;;;;;5042086;28;20247;-84
2024/01/24 13:49:26;;;;;;;9.63;2.70;;;;;;;;;;5053700;28;20248;-85
2024/01/24 13:51:54;;;;;;;6.97;2.20;;;;;;;;;;5052272;28;20653;-85
2024/01/24 13:54:21;;;;;;;6.13;2.63;;;;;;;;;;5052783;28;20202;-85
2024/01/24 13:56:48;;;;;;;7.43;2.87;;;;;;;;;;5047622;28;20245;-86
2024/01/24 13:59:15;;;;;;;6.07;1.93;;;;;;;;;;5053164;28;20217;-87
2024/01/24 14:01:42;;;;;;;10.93;2.67;;;;;;;;;;5052663;28;20230;-87
2024/01/24 14:04:09;;;;;;;12.83;3.10;;;;;;;;;;5053580;28;20577;-86
2024/01/24 14:06:44;;;;;;;10.63;2.83;;;;;;;;;;5052915;28;20316;-87
2024/01/24 14:09:13;;;;;;;10.80;2.87;;;;;;;;;;5045260;28;20198;-87
2024/01/24 14:11:40;;;;;;;5.50;2.60;;;;;;;;;;5052491;28;20241;-86
2024/01/24 14:14:08;;;;;;;8.33;2.53;;;;;;;;;;5053930;28;20746;-87
2024/01/24 14:16:41;;;;;;;9.33;2.43;;;;;;;;;;5052954;28;20226;-87
2024/01/24 14:19:08;;;;;;;9.87;2.47;;;;;;;;;;5054134;28;20206;-86
2024/01/24 14:21:35;;;;;;;10.67;3.17;;;;;;;;;;5045478;28;20304;-88
2024/01/24 14:24:03;;;;;;;9.00;2.30;;;;;;;;;;5054320;28;20267;-88
2024/01/24 14:26:34;;;;;;;13.27;3.00;;;;;;;;;;5053995;28;20246;-89
2024/01/24 14:29:02;;;;;;;9.37;2.87;;;;;;;;;;5059271;28;20206;-85
2024/01/24 14:31:30;;;;;;;13.83;3.03;;;;;;;;;;5074014;28;20234;-87
2024/01/24 14:33:57;;;;;;;12.27;2.60;;;;;;;;;;5074599;28;20188;-86
2024/01/24 14:36:31;;;;;;;13.23;3.00;;;;;;;;;;5067163;28;20221;-86
2024/01/24 14:38:58;;;;;;;11.23;2.67;;;;;;;;;;5066236;28;20201;-86
2024/01/24 14:41:25;;;;;;;11.13;2.93;;;;;;;;;;5064191;28;20336;-85
2024/01/24 14:43:52;;;;;;;8.93;3.17;;;;;;;;;;5064767;28;20210;-82
2024/01/24 14:46:25;;;;;;;6.57;2.50;;;;;;;;;;5053174;28;20238;-86